This is the latest recevied weather packets stored in our database for station/object HB9BHU-8. If no packets are shown the sender has not sent any weather packets the latest 10 day(s).
| Time | Temp. | Humidity | Pressure | Rain* | Wind** | Luminosity | Snow |
|---|---|---|---|---|---|---|---|
| 1777180537 | 8.89° C | 70% | 1022.6 hPa | 0 mm | - | - | - |
| 1777176933 | 8.33° C | 72% | 1022.3 hPa | 0 mm | - | - | - |
| 1777167910 | 9.44° C | 67% | 1021.4 hPa | 0 mm | - | - | - |
| 1777166107 | 10° C | 65% | 1021.3 hPa | 0 mm | - | - | - |
| 1777162558 | 11.11° C | 63% | 1021.3 hPa | 0 mm | - | - | - |
| 1777158049 | 12.78° C | 57% | 1021.3 hPa | 0 mm | - | - | - |
| 1777152644 | 13.89° C | 54% | 1021 hPa | 0 mm | - | - | - |
| 1777146335 | 16.11° C | 47% | 1020 hPa | 0 mm | - | - | - |
| 1777131939 | 21.67° C | 33% | 1018.4 hPa | 0 mm | - | - | - |
| 1777131028 | 22.22° C | 35% | 1018.3 hPa | 0 mm | - | - | - |
| 1777128334 | 22.22° C | 35% | 1018.3 hPa | 0 mm | - | - | - |
| 1777126530 | 22.22° C | 33% | 1018.3 hPa | 0 mm | - | - | - |
| 1777125626 | 22.22° C | 34% | 1018.4 hPa | 0 mm | - | - | - |
| 1777123823 | 22.78° C | 33% | 1018.4 hPa | 0 mm | - | - | - |
| 1777116609 | 21.67° C | 35% | 1019.2 hPa | 0 mm | - | - | - |
| 1777108537 | 16.11° C | 51% | 1020.2 hPa | 0 mm | - | - | - |
| 1777107640 | 15° C | 52% | 1020.3 hPa | 0 mm | - | - | - |
| 1777098603 | 8.89° C | 71% | 1020.6 hPa | 0 mm | - | - | - |
| 1777095957 | 7.22° C | 73% | 1020.7 hPa | 0 mm | - | - | - |
| 1777088739 | 6.67° C | 73% | 1020.1 hPa | 0 mm | - | - | - |
| 1777087840 | 6.67° C | 72% | 1020.2 hPa | 0 mm | - | - | - |
| 1777086039 | 6.67° C | 72% | 1020.2 hPa | 0 mm | - | - | - |
| 1777084231 | 7.22° C | 73% | 1020.1 hPa | 0 mm | - | - | - |
| 1777073472 | 10.56° C | 58% | 1020.5 hPa | 0 mm | - | - | - |
| 1777068951 | 11.67° C | 56% | 1020.6 hPa | 0 mm | - | - | - |
* Rain latest hour (hover to see other rain measurements)
** Current wind speed in m/s (hover to see current wind gust speed)